Time;durP1;ratioP1;P1;durP2;ratioP2;P2;SDS_P1;SDS_P2;PMS_P1;PMS_P2;Temp;Humidity;BMP_temperature;BMP_pressure;BME280_temperature;BME280_humidity;BME280_pressure;Samples;Min_cycle;Max_cycle;Signal;HPM_P1;HPM_P2
2024/01/09 00:01:31;;;;;;;6.80;3.37;;;;;;;-5.72;66.89;103135.13;5285172;28;20079;-71
2024/01/09 00:04:02;;;;;;;5.60;3.30;;;;;;;-5.74;67.79;103128.13;5288346;28;20143;-72
2024/01/09 00:06:34;;;;;;;7.13;3.60;;;;;;;-5.73;66.89;103129.91;5289485;28;20024;-73
2024/01/09 00:09:05;;;;;;;4.27;3.10;;;;;;;-5.70;66.81;103132.72;5284262;28;20403;-73
2024/01/09 00:11:37;;;;;;;6.07;3.40;;;;;;;-5.74;67.30;103126.47;5283317;28;20033;-72
2024/01/09 00:14:08;;;;;;;6.33;3.40;;;;;;;-5.73;67.44;103129.91;5282966;28;20063;-72
2024/01/09 00:16:39;;;;;;;5.30;2.97;;;;;;;-5.74;67.40;103123.06;5282715;28;20025;-72
2024/01/09 00:19:11;;;;;;;5.27;3.57;;;;;;;-5.75;67.45;103121.25;5282779;28;20028;-72
2024/01/09 00:21:42;;;;;;;6.53;3.43;;;;;;;-5.75;67.78;103123.78;5283067;28;20028;-72
2024/01/09 00:24:14;;;;;;;6.50;3.87;;;;;;;-5.80;68.10;103122.50;5282528;28;20068;-72
2024/01/09 00:26:45;;;;;;;5.77;3.33;;;;;;;-5.81;68.32;103125.78;5282849;28;20348;-72
2024/01/09 00:29:16;;;;;;;6.43;3.93;;;;;;;-5.86;68.72;103126.25;5283593;28;20032;-72
2024/01/09 00:31:48;;;;;;;6.00;3.70;;;;;;;-5.93;69.49;103123.91;5286449;28;20029;-72
2024/01/09 00:34:19;;;;;;;5.53;3.60;;;;;;;-5.95;69.49;103127.06;5286869;28;20028;-72
2024/01/09 00:36:51;;;;;;;5.60;3.63;;;;;;;-5.98;69.35;103124.28;5286458;28;20033;-72
2024/01/09 00:39:22;;;;;;;8.27;4.10;;;;;;;-5.94;68.91;103126.28;5285097;28;20103;-72
2024/01/09 00:41:53;;;;;;;6.73;3.77;;;;;;;-5.95;69.16;103133.03;5287503;28;20119;-72
2024/01/09 00:44:25;;;;;;;4.93;3.87;;;;;;;-5.96;69.28;103121.06;5286355;28;20032;-72
2024/01/09 00:46:56;;;;;;;6.63;3.83;;;;;;;-5.93;69.66;103116.28;5286947;28;20395;-72
2024/01/09 00:49:27;;;;;;;8.10;3.53;;;;;;;-5.99;69.72;103125.00;5286330;28;20529;-72
2024/01/09 00:52:00;;;;;;;5.67;3.67;;;;;;;-5.99;69.79;103128.44;5286502;28;20032;-72
2024/01/09 00:54:32;;;;;;;6.10;3.38;;;;;;;-5.97;69.79;103114.25;5286550;28;20031;-73
2024/01/09 00:57:03;;;;;;;9.57;3.70;;;;;;;-6.00;70.40;103134.28;5286638;28;20032;-73
2024/01/09 00:59:35;;;;;;;6.67;3.57;;;;;;;-6.00;69.95;103130.88;5286693;28;20341;-73
2024/01/09 01:02:06;;;;;;;6.50;4.13;;;;;;;-6.02;69.72;103120.56;5286005;28;20039;-73
2024/01/09 01:04:38;;;;;;;6.00;3.90;;;;;;;-6.08;70.31;103120.00;5286337;28;20032;-73
2024/01/09 01:07:09;;;;;;;5.93;3.60;;;;;;;-6.09;70.57;103128.34;5286374;28;20025;-73
2024/01/09 01:09:41;;;;;;;5.53;3.77;;;;;;;-6.08;71.22;103114.91;5285050;28;20435;-73
2024/01/09 01:12:12;;;;;;;5.80;3.37;;;;;;;-6.07;70.76;103117.59;5286181;28;20067;-73
2024/01/09 01:14:43;;;;;;;5.50;3.40;;;;;;;-6.09;70.79;103120.72;5284953;28;20032;-72
2024/01/09 01:17:15;;;;;;;5.83;3.83;;;;;;;-6.13;70.74;103119.56;5285828;28;20029;-73
2024/01/09 01:19:46;;;;;;;5.97;4.03;;;;;;;-6.12;70.67;103118.78;5286049;28;20447;-74
2024/01/09 01:22:18;;;;;;;5.80;3.43;;;;;;;-6.13;70.96;103119.56;5286066;28;20532;-74
2024/01/09 01:24:49;;;;;;;4.93;3.33;;;;;;;-6.13;71.03;103131.38;5286206;28;20467;-74
2024/01/09 01:27:20;;;;;;;7.73;3.63;;;;;;;-6.14;71.13;103119.41;5285634;28;20544;-74
2024/01/09 01:29:52;;;;;;;6.63;4.03;;;;;;;-6.17;71.08;103122.56;5285896;28;20024;-74
2024/01/09 01:32:23;;;;;;;8.07;4.10;;;;;;;-6.22;71.95;103130.50;5284288;28;20128;-74
2024/01/09 01:34:54;;;;;;;8.00;3.37;;;;;;;-6.25;71.70;103118.41;5286190;28;20044;-74
2024/01/09 01:37:26;;;;;;;6.20;3.87;;;;;;;-6.26;71.56;103121.72;5284479;28;20031;-73
2024/01/09 01:39:57;;;;;;;7.50;4.10;;;;;;;-6.25;71.89;103128.56;5286353;28;20115;-77
2024/01/09 01:42:29;;;;;;;5.07;3.37;;;;;;;-6.31;71.86;103130.53;5285773;28;20035;-74
2024/01/09 01:45:00;;;;;;;5.23;3.33;;;;;;;-6.31;72.25;103136.53;5285571;28;20094;-73
2024/01/09 01:47:32;;;;;;;8.63;3.93;;;;;;;-6.31;72.58;103133.06;5285762;28;20035;-73
2024/01/09 01:50:05;;;;;;;5.85;3.42;;;;;;;-6.33;72.22;103125.31;5285394;28;20056;-73
2024/01/09 01:52:37;;;;;;;6.47;3.42;;;;;;;-6.32;72.29;103131.31;5285187;28;20025;-74
2024/01/09 01:55:10;;;;;;;5.75;3.30;;;;;;;-6.31;71.87;103126.38;5283795;28;20029;-73
2024/01/09 01:57:42;;;;;;;;;;;;;;;-6.36;71.71;103122.47;5284458;28;20029;-74
2024/01/09 02:00:16;;;;;;;6.63;3.33;;;;;;;-6.35;71.54;103125.94;5285170;28;19916;-74
2024/01/09 02:02:51;;;;;;;5.57;3.88;;;;;;;-6.34;71.88;103123.53;5285048;28;20036;-74
2024/01/09 02:05:25;;;;;;;5.97;3.78;;;;;;;-6.37;71.64;103128.34;5284963;28;20028;-73
2024/01/09 02:07:57;;;;;;;6.60;3.75;;;;;;;-6.45;72.11;103121.66;5284850;28;20111;-74
2024/01/09 02:10:29;;;;;;;5.72;3.72;;;;;;;-6.45;71.99;103119.09;5284697;28;20045;-74
2024/01/09 02:13:00;;;;;;;5.30;3.03;;;;;;;-6.46;72.74;103124.91;5284771;28;20028;-74
2024/01/09 02:15:32;;;;;;;5.60;3.70;;;;;;;-6.49;72.50;103122.09;5283405;28;20111;-74
2024/01/09 02:18:03;;;;;;;5.87;3.53;;;;;;;-6.54;73.09;103118.25;5284477;28;20036;-74
2024/01/09 02:20:35;;;;;;;6.53;3.93;;;;;;;-6.52;72.71;103115.09;5284956;28;20115;-74
2024/01/09 02:23:06;;;;;;;6.07;3.50;;;;;;;-6.47;73.03;103118.03;5284263;28;20040;-74
2024/01/09 02:25:37;;;;;;;4.97;3.20;;;;;;;-6.49;72.55;103112.81;5283263;28;20032;-75
2024/01/09 02:28:30;;;;;;;6.20;3.20;;;;;;;-6.49;72.56;103112.81;5284619;28;20028;-74
2024/01/09 02:31:01;;;;;;;5.90;3.63;;;;;;;-6.53;73.25;103112.44;5283927;28;20020;-74
2024/01/09 02:33:34;;;;;;;6.93;3.97;;;;;;;-6.54;73.23;103110.63;5284122;28;20063;-74
2024/01/09 02:36:06;;;;;;;6.15;3.72;;;;;;;-6.61;73.47;103112.59;5284066;28;20021;-75
2024/01/09 02:38:38;;;;;;;5.90;4.07;;;;;;;-6.64;73.86;103112.28;5284072;28;20024;-75
2024/01/09 02:41:10;;;;;;;5.82;3.42;;;;;;;-6.65;74.12;103107.97;5284214;28;20383;-76
2024/01/09 02:43:41;;;;;;;6.70;3.63;;;;;;;-6.67;74.17;103100.97;5283137;28;20032;-76
2024/01/09 02:46:13;;;;;;;7.07;3.47;;;;;;;-6.67;74.14;103106.03;5284060;28;20488;-76
2024/01/09 02:48:44;;;;;;;8.53;3.43;;;;;;;-6.71;74.96;103099.78;5284363;28;20032;-75
2024/01/09 02:51:15;;;;;;;5.50;3.43;;;;;;;-6.74;74.89;103102.03;5283644;28;20099;-75
2024/01/09 02:53:47;;;;;;;5.57;3.70;;;;;;;-6.79;75.10;103101.59;5283296;28;20028;-75
2024/01/09 02:56:19;;;;;;;5.43;3.58;;;;;;;-6.80;75.90;103096.38;5283620;28;20082;-75
2024/01/09 02:58:50;;;;;;;6.43;3.30;;;;;;;-6.81;75.95;103105.63;5283739;28;20029;-75
2024/01/09 03:01:25;;;;;;;5.87;3.13;;;;;;;-6.82;75.59;103098.75;5282483;28;20115;-75
2024/01/09 03:03:56;;;;;;;6.05;3.33;;;;;;;-6.82;76.43;103098.75;5282329;28;20039;-75
2024/01/09 03:06:27;;;;;;;6.57;3.43;;;;;;;-6.85;76.37;103088.31;5283910;28;20025;-75
2024/01/09 03:08:59;;;;;;;8.27;4.30;;;;;;;-6.85;76.33;103090.88;5283658;28;20028;-75
2024/01/09 03:11:30;;;;;;;5.50;3.53;;;;;;;-6.87;76.80;103088.94;5282196;28;20032;-75
2024/01/09 03:14:01;;;;;;;9.93;4.03;;;;;;;-6.88;76.63;103082.09;5282234;28;20032;-75
2024/01/09 03:16:33;;;;;;;7.00;4.60;;;;;;;-6.91;76.84;103091.94;5282909;28;20349;-76
2024/01/09 03:19:04;;;;;;;5.70;3.73;;;;;;;-6.98;77.10;103091.34;5283807;28;20421;-75
2024/01/09 03:21:35;;;;;;;7.97;3.67;;;;;;;-6.94;77.79;103087.44;5282867;28;20452;-75
2024/01/09 03:24:07;;;;;;;6.67;3.60;;;;;;;-6.94;77.26;103089.97;5265239;28;20037;-76
2024/01/09 03:26:38;;;;;;;6.23;3.87;;;;;;;-6.97;78.55;103089.69;5283304;28;20032;-75
2024/01/09 03:29:10;;;;;;;7.77;4.30;;;;;;;-6.93;78.45;103094.31;5283121;28;20029;-75
2024/01/09 03:31:41;;;;;;;8.60;4.67;;;;;;;-6.97;78.23;103083.00;5281931;28;20032;-76
2024/01/09 03:34:12;;;;;;;5.90;3.40;;;;;;;-6.96;78.36;103096.56;5282821;28;20029;-75
2024/01/09 03:36:44;;;;;;;7.23;4.00;;;;;;;-7.02;78.24;103089.28;5283139;28;20371;-75
2024/01/09 03:39:16;;;;;;;6.55;3.72;;;;;;;-7.03;78.21;103087.47;5283004;28;20045;-75
2024/01/09 03:41:47;;;;;;;5.03;3.13;;;;;;;-7.04;78.27;103087.31;5281425;28;20397;-76
2024/01/09 03:44:18;;;;;;;6.93;3.87;;;;;;;-7.03;78.06;103087.47;5282562;28;20032;-75
2024/01/09 03:46:50;;;;;;;6.30;3.90;;;;;;;-7.05;78.44;103081.38;5282814;28;20388;-75
2024/01/09 03:49:21;;;;;;;6.70;4.27;;;;;;;-7.06;79.08;103086.28;5282907;28;20119;-75
2024/01/09 03:51:52;;;;;;;5.77;3.53;;;;;;;-7.03;79.03;103086.59;5283144;28;20048;-75
2024/01/09 03:54:24;;;;;;;5.67;3.40;;;;;;;-7.05;79.30;103083.91;5282419;28;20020;-75
2024/01/09 03:56:55;;;;;;;6.03;3.20;;;;;;;-7.02;79.04;103079.13;5282444;28;20107;-75
2024/01/09 03:59:27;;;;;;;9.07;4.20;;;;;;;-7.05;78.98;103083.00;5282333;28;20422;-74
2024/01/09 04:01:58;;;;;;;6.00;4.10;;;;;;;-7.09;79.22;103091.94;5282951;28;20139;-75
2024/01/09 04:04:29;;;;;;;6.87;3.70;;;;;;;-7.12;79.49;103083.16;5281828;28;20032;-76
2024/01/09 04:07:01;;;;;;;6.90;4.47;;;;;;;-7.11;79.52;103077.38;5282662;28;20067;-75
2024/01/09 04:09:32;;;;;;;6.90;3.90;;;;;;;-7.11;79.59;103082.44;5282491;28;20097;-75
2024/01/09 04:12:04;;;;;;;5.80;3.63;;;;;;;-7.12;79.86;103076.44;5282602;28;20464;-74
2024/01/09 04:14:35;;;;;;;6.68;4.25;;;;;;;-7.08;79.62;103078.53;5281662;28;20539;-74
2024/01/09 04:17:06;;;;;;;8.03;4.07;;;;;;;-7.13;80.05;103074.69;5283223;28;20029;-75
2024/01/09 04:19:39;;;;;;;9.97;3.70;;;;;;;-7.14;79.82;103070.34;5281295;28;20175;-75
2024/01/09 04:22:10;;;;;;;6.85;3.35;;;;;;;-7.14;80.28;103077.94;5282474;28;20034;-75
2024/01/09 04:24:41;;;;;;;5.97;3.67;;;;;;;-7.14;80.50;103083.03;5282674;28;20025;-75
2024/01/09 04:27:13;;;;;;;6.37;3.63;;;;;;;-7.19;80.32;103086.75;5282902;28;20107;-73
2024/01/09 04:29:45;;;;;;;5.23;3.20;;;;;;;-7.19;80.79;103074.97;5282569;28;20044;-74
2024/01/09 04:32:16;;;;;;;5.70;3.10;;;;;;;-7.18;80.49;103081.84;5281970;28;20119;-74
2024/01/09 04:34:47;;;;;;;4.47;3.20;;;;;;;-7.19;80.30;103086.75;5282446;28;20037;-74
2024/01/09 04:37:19;;;;;;;6.67;4.10;;;;;;;-7.21;80.64;103091.69;5283002;28;20041;-73
2024/01/09 04:39:50;;;;;;;7.30;3.80;;;;;;;-7.20;80.20;103085.84;5281098;28;20036;-75
2024/01/09 04:42:22;;;;;;;7.30;4.40;;;;;;;-7.26;80.75;103086.91;5282396;28;20025;-74
2024/01/09 04:44:53;;;;;;;6.27;3.87;;;;;;;-7.23;80.54;103092.28;5282814;28;20045;-74
2024/01/09 04:47:25;;;;;;;7.00;3.70;;;;;;;-7.27;80.81;103083.47;5282601;28;20082;-74
2024/01/09 04:49:56;;;;;;;9.25;4.35;;;;;;;-7.33;81.10;103091.38;5282200;28;20053;-74
2024/01/09 04:52:28;;;;;;;5.67;3.93;;;;;;;-7.36;81.12;103083.50;5282306;28;20032;-75
2024/01/09 04:54:59;;;;;;;6.47;3.70;;;;;;;-7.39;81.26;103087.34;5282776;28;20152;-74
2024/01/09 04:57:31;;;;;;;8.20;3.57;;;;;;;-7.43;81.63;103083.63;5282893;28;20032;-74
2024/01/09 05:00:02;;;;;;;6.80;3.90;;;;;;;-7.44;82.07;103079.31;5282180;28;20391;-75
2024/01/09 05:02:34;;;;;;;6.88;4.00;;;;;;;-7.47;82.21;103084.09;5282234;28;20036;-74
2024/01/09 05:05:05;;;;;;;7.30;3.60;;;;;;;-7.49;83.01;103082.16;5281177;28;20171;-75
2024/01/09 05:07:37;;;;;;;6.03;3.77;;;;;;;-7.49;82.88;103077.09;5282424;28;20029;-75
2024/01/09 05:10:08;;;;;;;6.50;4.27;;;;;;;-7.51;82.58;103075.28;5281157;28;20032;-74
2024/01/09 05:12:40;;;;;;;7.20;4.70;;;;;;;-7.50;83.49;103083.81;5282201;28;20041;-75
2024/01/09 05:15:11;;;;;;;7.03;4.63;;;;;;;-7.52;83.02;103070.97;5282983;28;20082;-75
2024/01/09 05:17:42;;;;;;;9.90;4.17;;;;;;;-7.44;83.16;103081.84;5285696;28;20031;-74
2024/01/09 05:20:14;;;;;;;6.87;3.87;;;;;;;-7.45;82.79;103075.00;5284385;28;20032;-75
2024/01/09 05:22:45;;;;;;;8.30;4.03;;;;;;;-7.48;82.94;103087.38;5285427;28;20055;-74
2024/01/09 05:25:17;;;;;;;7.30;4.10;;;;;;;-7.52;83.54;103083.66;5284483;28;20033;-75
2024/01/09 05:27:48;;;;;;;8.00;4.90;;;;;;;-7.47;82.97;103090.78;5286123;28;20032;-75
2024/01/09 05:30:19;;;;;;;6.07;3.97;;;;;;;-7.50;82.87;103081.28;5285269;28;20032;-74
2024/01/09 05:32:51;;;;;;;8.83;5.20;;;;;;;-7.46;83.11;103082.44;5285729;28;20031;-74
2024/01/09 05:35:22;;;;;;;8.70;4.33;;;;;;;-7.42;82.36;103084.53;5284879;28;20060;-74
2024/01/09 05:37:53;;;;;;;9.07;4.27;;;;;;;-7.48;82.57;103077.22;5285430;28;20468;-74
2024/01/09 05:40:25;;;;;;;6.47;4.20;;;;;;;-7.51;82.33;103074.41;5285723;28;20035;-74
2024/01/09 05:42:57;;;;;;;8.40;4.67;;;;;;;-7.56;83.07;103079.00;5285555;28;20024;-75
2024/01/09 05:45:28;;;;;;;7.67;4.50;;;;;;;-7.61;83.16;103077.69;5286170;28;20116;-74
2024/01/09 05:47:59;;;;;;;6.17;3.90;;;;;;;-7.61;83.22;103086.94;5285718;28;20115;-75
2024/01/09 05:50:31;;;;;;;7.03;4.47;;;;;;;-7.61;83.40;103081.88;5285071;28;20048;-74
2024/01/09 05:53:02;;;;;;;5.80;3.90;;;;;;;-7.62;83.40;103083.47;5285572;28;20028;-74
2024/01/09 05:55:34;;;;;;;8.57;4.30;;;;;;;-7.64;82.95;103082.44;5285528;28;20059;-73
2024/01/09 05:58:06;;;;;;;6.53;4.17;;;;;;;-7.69;83.47;103091.22;5285680;28;20044;-74
2024/01/09 06:00:37;;;;;;;9.18;4.32;;;;;;;-7.69;83.96;103091.22;5285675;28;20123;-74
2024/01/09 06:03:08;;;;;;;6.23;4.03;;;;;;;-7.75;84.07;103078.84;5284730;28;20094;-75
2024/01/09 06:05:40;;;;;;;7.40;4.47;;;;;;;-7.75;84.14;103088.97;5285434;28;20403;-75
2024/01/09 06:08:11;;;;;;;7.10;4.33;;;;;;;-7.76;84.79;103079.63;5285090;28;20020;-73
2024/01/09 06:10:43;;;;;;;6.87;4.33;;;;;;;-7.78;84.64;103083.59;5284661;28;20500;-73
2024/01/09 06:13:14;;;;;;;5.90;3.37;;;;;;;-7.83;84.46;103077.19;5284840;28;20033;-74
2024/01/09 06:15:46;;;;;;;7.17;4.07;;;;;;;-7.86;85.14;103071.84;5285715;28;20028;-74
2024/01/09 06:18:17;;;;;;;7.17;4.80;;;;;;;-7.83;85.14;103076.31;5284967;28;20107;-74
2024/01/09 06:20:48;;;;;;;8.67;4.70;;;;;;;-7.80;85.18;103080.03;5285014;28;20503;-74
2024/01/09 06:23:20;;;;;;;8.77;4.53;;;;;;;-7.83;84.93;103082.25;5284764;28;20043;-74
2024/01/09 06:25:51;;;;;;;7.27;4.37;;;;;;;-7.85;85.14;103088.81;5284976;28;20043;-74
2024/01/09 06:28:23;;;;;;;9.67;5.03;;;;;;;-7.89;85.38;103089.25;5282406;28;20075;-74
2024/01/09 06:30:54;;;;;;;9.25;5.13;;;;;;;-7.93;85.99;103097.31;5284897;28;20021;-75
2024/01/09 06:33:26;;;;;;;6.23;4.17;;;;;;;-7.98;85.99;103094.31;5284909;28;20039;-74
2024/01/09 06:35:58;;;;;;;6.78;4.70;;;;;;;-7.95;85.89;103108.88;5284503;28;20024;-75
2024/01/09 06:38:29;;;;;;;9.67;5.17;;;;;;;-7.98;86.60;103101.91;5283332;28;20117;-74
2024/01/09 06:41:00;;;;;;;7.33;4.50;;;;;;;-7.97;85.67;103111.31;5284802;28;20521;-74
2024/01/09 06:43:32;;;;;;;9.73;5.37;;;;;;;-7.97;86.62;103115.44;5284246;28;20135;-74
2024/01/09 06:46:03;;;;;;;8.10;5.23;;;;;;;-7.95;86.51;103111.41;5284741;28;20033;-75
2024/01/09 06:48:35;;;;;;;7.23;4.57;;;;;;;-7.98;86.69;103114.56;5283938;28;20098;-74
2024/01/09 06:51:06;;;;;;;7.17;4.27;;;;;;;-7.97;86.78;103121.44;5284043;28;20106;-74
2024/01/09 06:53:37;;;;;;;7.33;5.50;;;;;;;-7.96;86.94;103114.72;5284135;28;20029;-74
2024/01/09 06:56:09;;;;;;;8.93;5.20;;;;;;;-8.02;86.59;103109.03;5284062;28;20028;-74
2024/01/09 06:58:40;;;;;;;6.93;4.57;;;;;;;-8.02;86.82;103114.09;5284090;28;20043;-74
2024/01/09 07:01:12;;;;;;;7.87;4.47;;;;;;;-7.97;87.12;103110.38;5283966;28;20036;-75
2024/01/09 07:03:44;;;;;;;8.43;5.03;;;;;;;-7.96;87.00;103109.66;5282701;28;20032;-75
2024/01/09 07:06:15;;;;;;;9.63;4.72;;;;;;;-7.97;87.21;103115.44;5283938;28;20351;-76
2024/01/09 07:08:47;;;;;;;9.87;4.73;;;;;;;-7.99;87.39;103111.88;5283446;28;20082;-75
2024/01/09 07:11:19;;;;;;;8.85;5.35;;;;;;;-7.94;87.71;103116.63;5283511;28;20032;-75
2024/01/09 07:13:50;;;;;;;8.23;4.73;;;;;;;-8.00;87.83;103116.06;5282648;28;20043;-74
2024/01/09 07:16:21;;;;;;;7.37;4.50;;;;;;;-7.97;87.41;103115.44;5283550;28;20097;-75
2024/01/09 07:18:53;;;;;;;7.90;4.93;;;;;;;-7.95;87.76;103113.94;5282142;28;20033;-75
2024/01/09 07:21:24;;;;;;;9.80;5.90;;;;;;;-7.98;87.98;103111.16;5283611;28;20028;-76
2024/01/09 07:23:55;;;;;;;8.80;5.10;;;;;;;-8.01;88.21;103118.44;5283178;28;20036;-76
2024/01/09 07:26:27;;;;;;;8.20;4.60;;;;;;;-8.06;88.13;103113.78;5283407;28;20111;-75
2024/01/09 07:28:58;;;;;;;9.53;4.93;;;;;;;-8.02;88.00;103124.22;5283969;28;20047;-75
2024/01/09 07:31:30;;;;;;;8.43;4.67;;;;;;;-7.97;88.76;103130.63;5283367;28;20116;-76
2024/01/09 07:34:01;;;;;;;12.43;7.00;;;;;;;-7.98;88.89;103131.41;5283719;28;20036;-76
2024/01/09 07:36:32;;;;;;;38.00;17.73;;;;;;;-7.99;88.82;103138.06;5283644;28;20103;-76
2024/01/09 07:39:05;;;;;;;20.53;11.40;;;;;;;-7.95;87.95;103139.25;5283823;28;20067;-76
2024/01/09 07:41:37;;;;;;;14.15;7.10;;;;;;;-7.92;88.06;103147.16;5283996;28;20103;-76
2024/01/09 07:44:08;;;;;;;15.80;8.30;;;;;;;-7.94;87.64;103143.59;5283690;28;20107;-76
2024/01/09 07:46:40;;;;;;;23.57;12.90;;;;;;;-7.94;87.95;103141.94;5284156;28;20033;-75
2024/01/09 07:49:11;;;;;;;11.97;7.47;;;;;;;-7.95;87.97;103146.88;5284053;28;20034;-76
2024/01/09 07:51:44;;;;;;;12.70;7.33;;;;;;;-7.96;87.62;103152.69;5282528;28;20055;-75
2024/01/09 07:54:16;;;;;;;10.43;6.40;;;;;;;-7.93;88.57;103151.34;5284275;28;20056;-74
2024/01/09 07:56:47;;;;;;;7.57;5.23;;;;;;;-7.94;88.59;103144.47;5284229;28;20056;-75
2024/01/09 07:59:18;;;;;;;10.97;5.63;;;;;;;-7.91;88.90;103151.50;5284409;28;20543;-75
2024/01/09 08:01:54;;;;;;;12.47;8.10;;;;;;;-7.91;88.31;103151.50;5284842;28;20058;-75
2024/01/09 08:04:25;;;;;;;16.00;10.20;;;;;;;-7.88;87.94;103146.75;5284028;28;20090;-75
2024/01/09 08:06:57;;;;;;;54.40;28.70;;;;;;;-7.86;87.82;103149.44;5282524;28;20028;-76
2024/01/09 08:09:28;;;;;;;12.13;7.23;;;;;;;-7.83;87.90;103150.63;5283992;28;20032;-73
2024/01/09 08:12:00;;;;;;;18.97;12.03;;;;;;;-7.82;88.09;103154.97;5282134;28;20033;-75
2024/01/09 08:14:31;;;;;;;9.37;5.90;;;;;;;-7.76;87.60;103155.59;5284270;28;20028;-75
2024/01/09 08:17:03;;;;;;;10.93;6.60;;;;;;;-7.73;87.18;103160.94;5283543;28;20385;-75
2024/01/09 08:19:34;;;;;;;10.10;6.37;;;;;;;-7.70;87.08;103168.81;5283155;28;20029;-75
2024/01/09 08:22:05;;;;;;;10.10;6.50;;;;;;;-7.58;87.10;103158.13;5281708;28;20047;-75
2024/01/09 08:24:37;;;;;;;9.93;5.67;;;;;;;-7.51;86.14;103161.41;5283203;28;20028;-74
2024/01/09 08:27:08;;;;;;;10.90;6.57;;;;;;;-7.48;86.24;103153.25;5283634;28;20029;-77
2024/01/09 08:29:43;;;;;;;17.70;9.43;;;;;;;-7.41;85.83;103163.22;5282778;28;20104;-75
2024/01/09 08:32:16;;;;;;;10.52;6.97;;;;;;;-7.36;85.71;103163.66;5282558;28;20048;-75
2024/01/09 08:34:48;;;;;;;8.13;5.32;;;;;;;-7.34;86.16;103163.09;5282383;28;20057;-76
2024/01/09 08:37:19;;;;;;;11.15;6.53;;;;;;;-7.31;85.92;103159.94;5283040;28;20509;-75
2024/01/09 08:39:51;;;;;;;12.37;7.30;;;;;;;-7.27;85.17;103161.16;5282414;28;20467;-76
2024/01/09 08:42:22;;;;;;;8.37;6.23;;;;;;;-7.26;85.33;103168.91;5282832;28;20127;-76
2024/01/09 08:44:54;;;;;;;9.23;6.00;;;;;;;-7.23;85.89;103156.53;5282726;28;20051;-76
2024/01/09 08:47:25;;;;;;;9.63;6.57;;;;;;;-7.17;85.55;103163.84;5282984;28;20085;-75
2024/01/09 08:49:56;;;;;;;12.33;6.50;;;;;;;-7.03;85.43;103163.53;5283544;28;20056;-75
2024/01/09 08:52:28;;;;;;;10.30;6.07;;;;;;;-6.94;84.89;103168.59;5286199;28;20067;-76
2024/01/09 08:55:00;;;;;;;9.52;6.30;;;;;;;-6.79;85.07;103165.00;5288028;28;20049;-76
2024/01/09 08:57:32;;;;;;;11.63;6.63;;;;;;;-6.61;84.11;103170.06;5288478;28;20033;-74
2024/01/09 09:00:04;;;;;;;9.73;7.10;;;;;;;-6.43;83.09;103168.34;5288242;28;20032;-74
2024/01/09 09:02:35;;;;;;;9.20;6.03;;;;;;;-6.20;81.91;103182.31;5287844;28;20032;-77
2024/01/09 09:05:07;;;;;;;8.03;5.53;;;;;;;-6.09;79.86;103179.13;5287876;28;20101;-73
2024/01/09 09:07:38;;;;;;;10.43;5.50;;;;;;;-5.92;79.33;103179.03;5270506;28;20036;-75
2024/01/09 09:10:10;;;;;;;9.27;5.73;;;;;;;-5.67;79.06;103186.38;5286045;28;20807;-74
2024/01/09 09:12:41;;;;;;;7.77;5.67;;;;;;;-5.54;78.41;103183.28;5284976;28;20029;-74
2024/01/09 09:15:13;;;;;;;9.10;5.33;;;;;;;-5.36;77.42;103171.34;5286567;28;20054;-74
2024/01/09 09:17:44;;;;;;;14.33;6.60;;;;;;;-5.24;75.25;103185.19;5285511;28;20033;-74
2024/01/09 09:20:17;;;;;;;7.97;5.60;;;;;;;-5.11;73.87;103178.66;5286637;28;20086;-74
2024/01/09 09:22:48;;;;;;;9.65;6.07;;;;;;;-4.89;74.12;103178.91;5285232;28;20056;-73
2024/01/09 09:25:19;;;;;;;8.80;5.40;;;;;;;-4.71;72.86;103178.00;5286056;28;20441;-74
2024/01/09 09:27:51;;;;;;;10.53;5.43;;;;;;;-4.52;71.65;103177.97;5286925;28;20116;-75
2024/01/09 09:30:22;;;;;;;8.80;6.10;;;;;;;-4.35;70.07;103170.88;5286059;28;20089;-72
2024/01/09 09:32:56;;;;;;;12.30;6.90;;;;;;;-4.18;69.20;103175.78;5286105;28;20064;-73
2024/01/09 09:35:28;;;;;;;8.05;5.30;;;;;;;-3.96;68.09;103180.16;5286886;28;20413;-73
2024/01/09 09:37:59;;;;;;;10.80;6.28;;;;;;;-3.70;68.69;103182.38;5286113;28;20064;-74
2024/01/09 09:40:31;;;;;;;9.30;6.07;;;;;;;-3.58;66.89;103173.19;5287022;28;20035;-73
2024/01/09 09:43:04;;;;;;;9.50;5.57;;;;;;;-3.32;66.31;103174.44;5286189;28;20032;-73
2024/01/09 09:45:35;;;;;;;8.05;5.32;;;;;;;-3.43;63.51;103168.47;5285318;28;20163;-73
2024/01/09 09:48:07;;;;;;;8.80;5.83;;;;;;;-3.27;62.73;103164.63;5285109;28;20123;-73
2024/01/09 09:50:39;;;;;;;10.57;5.60;;;;;;;-3.08;62.28;103165.34;5285187;28;20490;-73
2024/01/09 09:53:11;;;;;;;8.88;5.35;;;;;;;-3.04;61.35;103171.59;5284274;28;20464;-72
2024/01/09 09:55:43;;;;;;;8.43;5.00;;;;;;;-2.78;62.33;103168.59;5285607;28;20098;-73
2024/01/09 09:58:14;;;;;;;9.87;5.60;;;;;;;-2.79;60.08;103182.13;5284868;28;20032;-71
2024/01/09 10:00:46;;;;;;;9.03;5.53;;;;;;;-2.46;60.79;103183.03;5285145;28;20037;-72
2024/01/09 10:03:20;;;;;;;9.43;6.20;;;;;;;-2.35;58.92;103176.19;5283547;28;20029;-72
2024/01/09 10:05:54;;;;;;;9.88;5.82;;;;;;;-2.28;58.70;103176.81;5284886;28;20108;-72
2024/01/09 10:08:28;;;;;;;9.48;5.78;;;;;;;-1.85;59.91;103167.34;5284938;28;20036;-72
2024/01/09 10:11:00;;;;;;;9.25;5.40;;;;;;;-1.84;56.73;103169.09;5284494;28;20028;-72
2024/01/09 10:13:32;;;;;;;7.85;5.20;;;;;;;-1.71;56.44;103165.81;5284767;28;20111;-72
2024/01/09 10:16:04;;;;;;;8.53;5.23;;;;;;;-1.63;55.32;103155.28;5285248;28;20119;-73
2024/01/09 10:18:36;;;;;;;8.53;5.53;;;;;;;-1.65;55.36;103160.28;5285177;28;20425;-72
2024/01/09 10:21:08;;;;;;;6.97;5.10;;;;;;;-1.44;54.58;103148.22;5284922;28;20533;-73
2024/01/09 10:23:40;;;;;;;8.73;5.53;;;;;;;-1.29;54.07;103148.44;5283202;28;20028;-73
2024/01/09 10:26:12;;;;;;;7.82;5.60;;;;;;;-1.47;53.27;103156.53;5284816;28;20373;-73
2024/01/09 10:28:43;;;;;;;8.33;5.60;;;;;;;-1.41;52.75;103145.00;5283400;28;20082;-74
2024/01/09 10:31:14;;;;;;;8.20;5.10;;;;;;;-1.39;52.30;103157.13;5284276;28;20032;-73
2024/01/09 10:33:46;;;;;;;8.50;5.77;;;;;;;-1.16;52.34;103156.28;5284058;28;20039;-73
2024/01/09 10:36:17;;;;;;;9.77;5.03;;;;;;;-0.90;52.16;103147.03;5282638;28;20032;-74
2024/01/09 10:38:49;;;;;;;9.37;5.07;;;;;;;-0.80;50.46;103144.34;5283207;28;20035;-74
2024/01/09 10:41:22;;;;;;;8.23;5.87;;;;;;;-0.66;50.17;103147.91;5284746;28;20032;-74
2024/01/09 10:43:53;;;;;;;10.88;5.22;;;;;;;-0.42;49.27;103140.16;5284094;28;20044;-74
2024/01/09 10:46:26;;;;;;;8.63;4.67;;;;;;;-0.25;49.89;103141.34;5284591;28;20032;-74
2024/01/09 10:48:58;;;;;;;7.45;5.18;;;;;;;0.21;49.60;103144.50;5284350;28;20040;-74
2024/01/09 10:51:31;;;;;;;9.90;6.00;;;;;;;0.20;48.11;103137.56;5284013;28;20055;-74
2024/01/09 10:54:04;;;;;;;;;;;;;;;0.40;47.50;103132.88;5284540;28;20111;-73
2024/01/09 10:56:36;;;;;;;8.23;5.07;;;;;;;0.35;47.52;103127.44;5283260;28;19908;-74
2024/01/09 10:59:11;;;;;;;6.63;5.00;;;;;;;0.66;46.85;103134.59;5282621;28;20425;-74
2024/01/09 11:01:42;;;;;;;7.95;5.35;;;;;;;0.65;46.34;103120.00;5283725;28;20036;-75
2024/01/09 11:04:13;;;;;;;9.77;5.67;;;;;;;0.93;45.52;103120.09;5284117;28;20032;-74
2024/01/09 11:06:47;;;;;;;7.53;5.07;;;;;;;0.86;44.70;103112.81;5283981;28;20428;-75
2024/01/09 11:09:20;;;;;;;7.72;5.18;;;;;;;1.52;45.92;103119.53;5283912;28;20064;-75
2024/01/09 11:11:52;;;;;;;9.32;5.85;;;;;;;1.61;43.85;103103.78;5283821;28;20044;-75
2024/01/09 11:14:25;;;;;;;7.53;4.63;;;;;;;2.61;44.37;103111.38;5283628;28;20036;-75
2024/01/09 11:16:59;;;;;;;9.02;5.15;;;;;;;2.88;42.71;103097.50;5283596;28;20048;-76
2024/01/09 11:19:30;;;;;;;7.47;4.88;;;;;;;2.87;41.98;103103.44;5284158;28;20027;-76
2024/01/09 11:22:19;;;;;;;7.90;5.13;;;;;;;3.06;42.44;103097.63;5284225;28;20028;-76
2024/01/09 11:24:57;;;;;;;8.02;5.22;;;;;;;3.13;41.36;103093.69;5283795;28;20498;-76
2024/01/09 11:27:38;;;;;;;7.55;5.57;;;;;;;3.32;40.68;103095.59;5284246;28;20124;-77
2024/01/09 11:30:10;;;;;;;8.55;5.03;;;;;;;3.29;40.62;103088.56;5283661;28;20384;-77
2024/01/09 11:32:41;;;;;;;8.18;5.15;;;;;;;2.95;39.05;103078.13;5283479;28;20025;-76
2024/01/09 11:35:18;;;;;;;7.77;5.00;;;;;;;3.09;39.60;103084.00;5282246;28;20171;-77
2024/01/09 11:37:51;;;;;;;6.05;4.15;;;;;;;3.78;39.24;103066.19;5283688;28;20294;-76
2024/01/09 11:40:23;;;;;;;;;;;;;;;4.34;40.65;103070.75;5283706;28;20203;-76
2024/01/09 11:42:55;;;;;;;7.93;4.65;;;;;;;4.27;39.21;103067.81;5283086;28;20019;-75
2024/01/09 11:45:26;;;;;;;8.35;5.70;;;;;;;5.25;38.21;103064.75;5283646;28;20032;-75